createdAt,value
2022-09-21T01:37:19.663Z,100726.00
2022-09-21T04:26:15.541Z,100802.20
2022-09-21T04:30:35.595Z,100808.00
2022-09-21T05:00:17.567Z,100819.20
2022-09-21T05:02:45.446Z,100812.80
2022-09-21T05:05:13.105Z,100816.40
2022-09-21T05:07:40.766Z,100818.60
2022-09-21T05:10:10.866Z,100818.00
2022-09-21T05:12:40.986Z,100819.20
2022-09-21T05:15:13.894Z,100825.20
2022-09-21T05:17:41.554Z,100822.20
2022-09-21T05:20:11.566Z,100824.20
2022-09-21T05:22:39.225Z,100831.40
2022-09-21T05:25:08.120Z,100828.00
2022-09-21T05:27:35.584Z,100830.40
2022-09-21T05:30:05.285Z,100829.20
2022-09-21T05:32:55.092Z,100828.80
2022-09-21T05:36:06.565Z,100828.40
2022-09-21T05:38:34.846Z,100832.60
2022-09-21T05:41:03.749Z,100837.20
2022-09-21T05:43:32.004Z,100842.60
2022-09-21T05:46:20.911Z,100844.60
2022-09-21T05:49:03.066Z,100841.00
2022-09-21T05:51:50.185Z,100844.60
2022-09-21T05:54:34.446Z,100845.80
2022-09-21T05:57:42.244Z,100855.40
2022-09-21T06:00:16.245Z,100853.80
2022-09-21T06:03:10.851Z,100855.80
2022-09-21T06:05:42.806Z,100858.20
2022-09-21T06:08:10.166Z,100863.00
2022-09-21T06:10:37.513Z,100858.40
2022-09-21T06:13:04.985Z,100855.60
2022-09-21T06:15:38.235Z,100859.40
2022-09-21T06:18:07.025Z,100862.00
2022-09-21T06:20:34.924Z,100865.00
2022-09-21T06:23:05.044Z,100866.40
2022-09-21T06:25:32.605Z,100863.60
2022-09-21T06:28:10.008Z,100867.80
2022-09-21T06:30:39.235Z,100858.20
2022-09-21T06:33:07.886Z,100859.60
2022-09-21T06:35:37.012Z,100860.60
2022-09-21T06:38:07.935Z,100863.80
2022-09-21T06:40:37.529Z,100864.60
2022-09-21T06:43:06.324Z,100866.80
2022-09-21T06:45:34.061Z,100867.20
2022-09-21T06:48:02.145Z,100871.60
2022-09-21T06:50:29.604Z,100871.80
2022-09-21T06:53:01.364Z,100873.60
2022-09-21T06:55:30.865Z,100879.60
2022-09-21T06:58:03.539Z,100881.20
2022-09-21T07:00:32.479Z,100882.00
2022-09-21T07:03:00.107Z,100881.80
2022-09-21T07:05:27.464Z,100886.20
2022-09-21T07:07:58.907Z,100886.60
2022-09-21T07:10:26.801Z,100891.00
2022-09-21T07:12:54.644Z,100896.20
2022-09-21T07:15:22.309Z,100895.80
2022-09-21T07:17:52.409Z,100894.40
2022-09-21T07:20:20.093Z,100895.80
2022-09-21T07:22:47.431Z,100901.60
2022-09-21T07:25:15.625Z,100901.00
2022-09-21T07:27:42.967Z,100896.60
2022-09-21T07:30:11.565Z,100901.00
2022-09-21T07:32:38.905Z,100899.60
2022-09-21T07:35:07.185Z,100902.80
2022-09-21T07:37:34.644Z,100901.80
2022-09-21T07:40:05.616Z,100906.00
2022-09-21T07:42:33.265Z,100904.20
2022-09-21T07:45:04.878Z,100900.80
2022-09-21T07:47:33.085Z,100904.20
2022-09-21T07:50:00.555Z,100905.60
2022-09-21T07:52:28.298Z,100908.60
2022-09-21T07:54:55.766Z,100904.00
2022-09-21T07:57:42.681Z,100904.20
2022-09-21T08:00:11.913Z,100913.00
2022-09-21T08:02:41.695Z,100911.40
2022-09-21T08:05:11.212Z,100914.60
2022-09-21T08:07:39.054Z,100911.80
2022-09-21T08:10:07.538Z,100912.40
2022-09-21T08:12:35.200Z,100916.00
2022-09-21T08:15:05.079Z,100909.20
2022-09-21T08:17:33.598Z,100911.60
2022-09-21T08:20:01.688Z,100913.60
2022-09-21T08:22:31.086Z,100911.20
2022-09-21T08:24:58.433Z,100912.60
2022-09-21T08:27:26.414Z,100911.80
2022-09-21T08:29:53.945Z,100909.00
2022-09-21T08:32:46.496Z,100907.80
2022-09-21T08:35:09.766Z,100908.40
2022-09-21T08:37:38.146Z,100906.20
2022-09-21T08:40:07.666Z,100911.00
2022-09-21T08:43:09.669Z,100916.00
2022-09-21T08:45:45.240Z,100915.80
2022-09-21T08:48:27.857Z,100924.00
2022-09-21T08:51:04.578Z,100923.60
2022-09-21T08:53:45.618Z,100920.60
2022-09-21T08:56:16.304Z,100925.60
2022-09-21T08:58:44.100Z,100920.60
2022-09-21T09:01:39.327Z,100919.40
2022-09-21T09:04:36.491Z,100914.00
2022-09-21T09:07:21.758Z,100917.00
2022-09-21T09:09:52.294Z,100923.40
2022-09-21T09:12:51.196Z,100918.40
2022-09-21T09:15:56.204Z,100920.80
2022-09-21T09:18:52.364Z,100915.80
2022-09-21T09:21:31.875Z,100917.20
2022-09-21T09:24:06.836Z,100914.60
2022-09-21T09:26:47.308Z,100920.20
2022-09-21T09:29:22.545Z,100920.60
2022-09-21T09:31:56.440Z,100920.20
2022-09-21T09:34:31.371Z,100921.60
2022-09-21T09:37:11.118Z,100923.20
2022-09-21T09:39:42.059Z,100918.00
2022-09-21T09:42:33.379Z,100912.60
2022-09-21T09:45:12.716Z,100916.80
2022-09-21T09:48:28.211Z,100915.40
2022-09-21T09:50:56.168Z,100914.00
2022-09-21T09:53:26.645Z,100914.00
2022-09-21T09:55:57.804Z,100915.80
2022-09-21T09:58:41.483Z,100916.60
2022-09-21T10:01:09.344Z,100916.40
2022-09-21T10:03:37.235Z,100915.80
2022-09-21T10:06:05.487Z,100910.40
2022-09-21T10:08:41.819Z,100908.60
2022-09-21T10:11:14.847Z,100907.60
2022-09-21T10:13:47.225Z,100901.60
2022-09-21T10:16:23.967Z,100903.20
2022-09-21T10:19:01.900Z,100901.80
2022-09-21T10:21:39.385Z,100895.60
2022-09-21T10:24:23.144Z,100901.20
2022-09-21T10:27:13.515Z,100897.00
2022-09-21T10:29:49.494Z,100901.00
2022-09-21T10:32:22.758Z,100898.40
2022-09-21T10:35:10.025Z,100895.60
2022-09-21T10:37:45.425Z,100897.60
2022-09-21T10:40:19.525Z,100898.20
2022-09-21T10:42:51.384Z,100896.80
2022-09-21T10:45:31.817Z,100897.60
2022-09-21T10:48:16.284Z,100892.60
2022-09-21T10:50:49.084Z,100882.20
2022-09-21T10:53:30.065Z,100875.60
2022-09-21T10:56:18.433Z,100878.80
2022-09-21T10:59:24.324Z,100876.40
2022-09-21T11:01:56.654Z,100869.00
2022-09-21T11:04:41.933Z,100861.80
2022-09-21T11:07:35.886Z,100861.00
2022-09-21T11:10:12.066Z,100857.40
2022-09-21T11:13:05.105Z,100866.80
2022-09-21T11:15:59.397Z,100864.80
2022-09-21T11:18:58.457Z,100863.00
2022-09-21T11:21:53.804Z,100857.40
2022-09-21T11:24:51.967Z,100852.80
2022-09-21T11:27:39.405Z,100850.40
2022-09-21T11:30:15.630Z,100844.20
2022-09-21T11:33:15.138Z,100841.60
2022-09-21T11:36:03.684Z,100841.40
2022-09-21T11:39:03.229Z,100843.20
2022-09-21T11:42:13.964Z,100841.60
2022-09-21T11:44:58.405Z,100842.80
2022-09-21T11:47:53.333Z,100834.80
2022-09-21T11:50:54.001Z,100828.80
2022-09-21T11:54:30.448Z,100837.20
2022-09-21T11:57:20.007Z,100831.20
2022-09-21T12:00:11.244Z,100832.60
2022-09-21T12:03:24.587Z,100826.80
2022-09-21T12:06:17.621Z,100822.40
2022-09-21T12:09:11.102Z,100828.20
2022-09-21T12:11:48.522Z,100828.40
2022-09-21T12:14:49.885Z,100827.80
2022-09-21T12:18:12.165Z,100829.00
2022-09-21T12:21:01.494Z,100821.60
2022-09-21T12:23:46.510Z,100817.80
2022-09-21T12:26:20.645Z,100812.20
2022-09-21T12:29:04.881Z,100815.60
2022-09-21T12:32:17.464Z,100805.40
2022-09-21T12:34:52.744Z,100808.40
2022-09-21T12:37:47.606Z,100806.60
2022-09-21T12:40:26.482Z,100806.60
2022-09-21T12:43:20.856Z,100820.00
2022-09-21T12:46:01.980Z,100812.60
2022-09-21T12:48:39.204Z,100812.80
2022-09-21T12:51:41.184Z,100813.00
2022-09-21T12:54:18.186Z,100815.60
2022-09-21T12:57:03.751Z,100814.00
2022-09-21T12:59:55.278Z,100813.40
2022-09-21T13:05:50.765Z,100811.20
2022-09-21T13:08:30.139Z,100809.40
2022-09-21T13:11:07.634Z,100806.40
2022-09-21T13:13:50.919Z,100810.00
2022-09-21T13:16:39.501Z,100806.80
2022-09-21T13:19:25.644Z,100799.80
2022-09-21T13:22:24.938Z,100804.80
2022-09-21T13:25:25.984Z,100804.00
2022-09-21T13:28:13.345Z,100807.60
2022-09-21T13:31:37.137Z,100807.60
2022-09-21T13:34:15.496Z,100806.40
2022-09-21T13:38:45.794Z,100802.00
2022-09-21T13:41:21.564Z,100800.60
2022-09-21T13:44:02.682Z,100801.40
2022-09-21T13:46:36.731Z,100798.20
2022-09-21T13:49:21.828Z,100801.00
2022-09-21T13:52:14.370Z,100805.60
2022-09-21T13:54:46.389Z,100808.20
2022-09-21T13:57:28.821Z,100808.40
2022-09-21T14:00:10.859Z,100809.60
2022-09-21T14:02:47.893Z,100807.00
2022-09-21T14:05:51.525Z,100807.80
2022-09-21T14:08:29.424Z,100806.20
2022-09-21T14:11:25.245Z,100801.80
2022-09-21T14:14:33.839Z,100803.20
2022-09-21T14:17:06.634Z,100798.40
2022-09-21T14:19:35.545Z,100799.20
2022-09-21T14:22:04.255Z,100794.00
2022-09-21T14:25:29.152Z,100796.80
2022-09-21T14:28:05.245Z,100794.60
2022-09-21T14:30:37.685Z,100791.40
2022-09-21T14:33:36.165Z,100790.00
2022-09-21T14:36:10.227Z,100786.80
2022-09-21T14:38:58.131Z,100781.40
2022-09-21T14:41:38.465Z,100781.40
2022-09-21T14:44:19.446Z,100776.20
2022-09-21T14:47:18.944Z,100781.20
2022-09-21T14:50:15.485Z,100784.40
2022-09-21T14:53:56.351Z,100776.60
2022-09-21T14:56:54.753Z,100779.20
2022-09-21T14:59:41.466Z,100771.40
2022-09-21T15:02:23.968Z,100772.20
2022-09-21T15:05:04.944Z,100769.20
2022-09-21T15:08:40.601Z,100773.60
2022-09-21T15:11:53.840Z,100772.60
2022-09-21T15:14:41.173Z,100775.60
2022-09-21T15:17:27.000Z,100772.80
2022-09-21T15:20:13.485Z,100775.20
2022-09-21T15:22:45.826Z,100774.20
2022-09-21T15:25:15.947Z,100772.40
2022-09-21T15:27:47.085Z,100772.60
2022-09-21T15:30:29.766Z,100774.00
2022-09-21T15:33:02.795Z,100778.00
2022-09-21T15:35:33.985Z,100775.60
2022-09-21T15:38:03.125Z,100786.40
2022-09-21T15:40:37.137Z,100784.80
2022-09-21T15:43:19.966Z,100786.40
2022-09-21T15:46:12.862Z,100787.00
2022-09-21T15:48:42.826Z,100787.80
2022-09-21T15:51:23.766Z,100792.00
2022-09-21T15:54:02.007Z,100787.80
2022-09-21T15:56:31.515Z,100791.40
2022-09-21T15:59:12.185Z,100789.60
2022-09-21T16:01:48.386Z,100791.20
2022-09-21T16:04:28.726Z,100789.60
2022-09-21T16:07:25.086Z,100789.60
2022-09-21T16:09:54.044Z,100793.40
2022-09-21T16:12:44.186Z,100793.60
2022-09-21T16:15:33.792Z,100797.20
2022-09-21T16:18:07.231Z,100797.20
2022-09-21T16:20:48.531Z,100798.20
2022-09-21T16:23:26.355Z,100797.00
2022-09-21T16:26:01.744Z,100802.20
2022-09-21T16:28:39.745Z,100804.20
2022-09-21T16:31:36.473Z,100809.00
2022-09-21T16:34:37.224Z,100813.80
2022-09-21T16:37:36.792Z,100818.40
2022-09-21T16:40:06.302Z,100820.80
2022-09-21T16:42:35.426Z,100815.60
2022-09-21T16:45:17.896Z,100821.20
2022-09-21T16:47:47.434Z,100817.60
2022-09-21T16:50:19.344Z,100817.20
2022-09-21T16:52:53.110Z,100821.60
2022-09-21T16:55:28.229Z,100827.40
2022-09-21T16:58:00.136Z,100826.40
2022-09-21T17:00:35.483Z,100829.40
2022-09-21T17:03:04.864Z,100828.60
2022-09-21T17:05:35.033Z,100825.60
2022-09-21T17:08:04.945Z,100829.60
2022-09-21T17:10:44.585Z,100828.40
2022-09-21T17:13:16.609Z,100831.40
2022-09-21T17:15:49.109Z,100836.00
2022-09-21T17:18:17.966Z,100832.20
2022-09-21T17:20:47.766Z,100837.20
2022-09-21T17:23:16.767Z,100841.40
2022-09-21T17:25:46.065Z,100847.60
2022-09-21T17:28:26.234Z,100850.00
2022-09-21T17:30:56.315Z,100856.20
2022-09-21T17:33:26.405Z,100859.00
2022-09-21T17:35:57.052Z,100860.80
2022-09-21T17:38:26.135Z,100861.40
2022-09-21T17:40:55.515Z,100863.00
2022-09-21T17:43:44.265Z,100868.80
2022-09-21T17:46:59.444Z,100869.20
2022-09-21T17:49:28.726Z,100874.00
2022-09-21T17:52:16.767Z,100869.00
2022-09-21T17:54:46.384Z,100877.00
2022-09-21T17:58:13.532Z,100878.20
2022-09-21T18:01:03.944Z,100877.40
2022-09-21T18:03:42.373Z,100878.00
2022-09-21T18:06:12.611Z,100874.20
2022-09-21T18:08:42.565Z,100876.60
2022-09-21T18:11:42.310Z,100878.00
2022-09-21T18:14:58.405Z,100875.80
2022-09-21T18:18:16.244Z,100880.20
2022-09-21T18:21:04.687Z,100880.00
2022-09-21T18:23:50.686Z,100881.00
2022-09-21T18:26:21.105Z,100882.00
2022-09-21T18:28:57.466Z,100887.00
2022-09-21T18:32:19.828Z,100884.60
2022-09-21T18:35:13.907Z,100890.80
2022-09-21T18:37:52.111Z,100891.60
2022-09-21T18:40:51.816Z,100896.00
2022-09-21T18:44:26.625Z,100898.60
2022-09-21T18:47:33.229Z,100899.40
2022-09-21T18:50:35.818Z,100895.00
2022-09-21T18:53:30.525Z,100896.00
2022-09-21T18:56:01.385Z,100899.00
2022-09-21T18:58:31.259Z,100903.80
2022-09-21T19:01:00.786Z,100907.00
2022-09-21T19:03:30.306Z,100905.60
2022-09-21T19:06:29.179Z,100908.00
2022-09-21T19:09:00.449Z,100906.80
2022-09-21T19:11:53.584Z,100902.80
2022-09-21T19:14:59.646Z,100899.40
2022-09-21T19:18:13.313Z,100901.00
2022-09-21T19:21:02.576Z,100901.00
2022-09-21T19:23:59.421Z,100898.60
2022-09-21T19:27:11.304Z,100902.60
2022-09-21T19:30:06.104Z,100903.20
2022-09-21T19:32:53.651Z,100898.20
2022-09-21T19:35:30.105Z,100901.00
2022-09-21T19:38:04.425Z,100894.20
2022-09-21T19:40:39.659Z,100894.60
2022-09-21T19:43:42.746Z,100894.20
2022-09-21T19:46:20.494Z,100894.80
2022-09-21T19:48:56.727Z,100889.60
2022-09-21T19:51:49.146Z,100892.40
2022-09-21T19:54:41.212Z,100888.60
2022-09-21T19:57:38.249Z,100890.80
2022-09-21T20:00:13.205Z,100886.60
2022-09-21T20:03:11.864Z,100888.40
2022-09-21T20:05:46.385Z,100889.80
2022-09-21T20:08:28.727Z,100891.00
2022-09-21T20:11:13.665Z,100891.40
2022-09-21T20:14:23.524Z,100889.60
2022-09-21T20:17:01.216Z,100886.40
2022-09-21T20:19:42.984Z,100881.80
2022-09-21T20:22:16.645Z,100872.00
2022-09-21T20:25:00.546Z,100874.60
2022-09-21T20:27:51.330Z,100873.40
2022-09-21T20:30:27.315Z,100871.80
2022-09-21T20:33:07.268Z,100874.40
2022-09-21T20:35:36.370Z,100879.80
2022-09-21T20:38:05.668Z,100881.40
2022-09-21T20:40:35.338Z,100882.00
2022-09-21T20:43:04.386Z,100882.40
2022-09-21T20:45:33.794Z,100879.00
2022-09-21T20:48:16.166Z,100881.80
2022-09-21T20:50:49.121Z,100884.00
2022-09-21T20:53:19.751Z,100878.20
2022-09-21T20:56:02.514Z,100878.40
2022-09-21T20:58:32.815Z,100879.80
2022-09-21T21:01:10.342Z,100880.60
2022-09-21T21:03:39.280Z,100880.40
2022-09-21T21:06:19.031Z,100881.20
2022-09-21T21:08:48.372Z,100879.60
2022-09-21T21:11:17.290Z,100885.80
2022-09-21T21:13:47.034Z,100881.20
2022-09-21T21:16:16.206Z,100882.60
2022-09-21T21:18:45.175Z,100884.80
2022-09-21T21:21:14.452Z,100884.00
2022-09-21T21:24:01.792Z,100882.40
2022-09-21T21:26:57.331Z,100882.80
2022-09-21T21:29:19.972Z,100882.60
2022-09-21T21:31:50.812Z,100880.20
2022-09-21T21:34:19.900Z,100882.20
2022-09-21T21:36:48.872Z,100881.20
2022-09-21T21:39:17.771Z,100879.40
2022-09-21T21:41:47.171Z,100875.40
2022-09-21T21:44:16.263Z,100877.40
2022-09-21T21:46:45.173Z,100869.40
2022-09-21T21:49:14.780Z,100863.20
2022-09-21T21:51:45.032Z,100858.00
2022-09-21T21:54:13.772Z,100857.60
2022-09-21T21:56:42.780Z,100855.60
2022-09-21T23:02:15.962Z,100852.00
2022-09-21T23:09:46.369Z,100858.20
2022-09-21T23:13:45.304Z,100862.80
